Time;durP1;ratioP1;P1;durP2;ratioP2;P2;SDS_P1;SDS_P2;PMS_P1;PMS_P2;Temp;Humidity;BMP_temperature;BMP_pressure;BME280_temperature;BME280_humidity;BME280_pressure;Samples;Min_cycle;Max_cycle;Signal;HPM_P1;HPM_P2
2022/11/11 00:00:36;;;;;;;15.68;7.30;;;12.00;99.90;;;;;;4921463;29;20051;-62
2022/11/11 00:03:03;;;;;;;20.30;7.57;;;12.00;99.90;;;;;;4922958;29;20055;-61
2022/11/11 00:05:29;;;;;;;18.80;8.00;;;11.90;99.90;;;;;;4921685;29;20048;-62
2022/11/11 00:07:58;;;;;;;17.52;8.88;;;12.00;99.90;;;;;;4922460;29;20233;-62
2022/11/11 00:10:33;;;;;;;17.15;7.65;;;12.00;99.90;;;;;;4922223;29;20048;-62
2022/11/11 00:13:04;;;;;;;16.08;7.78;;;12.00;99.90;;;;;;4921367;29;20130;-63
2022/11/11 00:15:30;;;;;;;18.30;8.00;;;11.90;99.90;;;;;;4922568;29;20052;-62
2022/11/11 00:26:13;;;;;;;19.77;8.45;;;11.90;99.90;;;;;;4921332;29;20063;-62
2022/11/11 00:28:39;;;;;;;20.77;8.45;;;11.80;99.90;;;;;;4922910;29;20048;-62
2022/11/11 00:31:08;;;;;;;17.42;8.80;;;11.90;99.90;;;;;;4921484;29;20056;-63
2022/11/11 00:33:34;;;;;;;22.42;10.02;;;11.70;99.90;;;;;;4922620;29;20107;-65
2022/11/11 00:36:00;;;;;;;14.90;8.63;;;11.90;99.90;;;;;;4904773;29;20079;-61
2022/11/11 00:41:26;;;;;;;16.92;8.77;;;11.80;99.90;;;;;;4890063;29;20060;-62
2022/11/11 00:43:51;;;;;;;17.17;8.55;;;12.00;99.90;;;;;;4921047;29;20095;-63
2022/11/11 00:51:45;;;;;;;17.25;9.00;;;11.90;99.90;;;;;;4921069;29;20108;-62
2022/11/11 00:54:11;;;;;;;18.92;10.02;;;11.80;99.90;;;;;;4922356;29;20092;-62
2022/11/11 00:56:37;;;;;;;18.52;9.18;;;11.80;99.90;;;;;;4903956;29;20108;-62
2022/11/11 00:59:07;;;;;;;15.55;9.20;;;11.90;99.90;;;;;;4922642;29;20048;-62
2022/11/11 01:01:35;;;;;;;17.02;8.95;;;11.80;99.90;;;;;;4923211;29;20378;-62
2022/11/11 01:04:01;;;;;;;22.25;9.65;;;11.80;99.90;;;;;;4908217;29;20048;-63
2022/11/11 01:06:27;;;;;;;15.00;8.77;;;11.80;99.90;;;;;;4925610;29;20071;-62
2022/11/11 01:08:52;;;;;;;19.77;9.68;;;11.90;99.90;;;;;;4924795;29;20036;-58
2022/11/11 01:11:21;;;;;;;19.98;8.95;;;11.90;99.90;;;;;;4925262;29;20051;-63
2022/11/11 01:13:47;;;;;;;17.80;9.25;;;11.80;99.90;;;;;;4924476;29;20066;-62
2022/11/11 01:16:24;;;;;;;14.18;8.98;;;11.80;99.90;;;;;;4925851;29;20044;-61
2022/11/11 01:18:51;;;;;;;22.33;9.88;;;11.90;99.90;;;;;;4924759;29;20051;-62
2022/11/11 01:21:22;;;;;;;17.45;9.32;;;11.70;99.90;;;;;;4924776;29;20059;-63
2022/11/11 01:23:49;;;;;;;16.60;9.68;;;11.90;99.90;;;;;;4925076;29;20051;-62
2022/11/11 01:26:19;;;;;;;20.23;11.07;;;11.80;99.90;;;;;;4923957;29;20092;-63
2022/11/11 01:28:49;;;;;;;18.13;9.35;;;11.80;99.90;;;;;;4925390;29;20051;-63
2022/11/11 01:31:15;;;;;;;21.60;10.20;;;11.80;99.90;;;;;;4924402;29;20040;-63
2022/11/11 01:33:41;;;;;;;16.65;9.75;;;11.90;99.90;;;;;;4925120;29;20086;-63
2022/11/11 01:36:23;;;;;;;21.77;10.18;;;11.90;99.90;;;;;;4924720;29;20052;-64
2022/11/11 01:38:51;;;;;;;18.35;9.65;;;11.90;99.90;;;;;;4923564;29;20056;-62
2022/11/11 01:41:32;;;;;;;19.50;9.77;;;11.90;99.90;;;;;;4925016;29;20040;-62
2022/11/11 01:44:10;;;;;;;18.77;8.52;;;11.80;99.90;;;;;;4924277;29;20048;-62
2022/11/11 01:46:48;;;;;;;17.05;10.05;;;11.90;99.90;;;;;;4924759;29;20052;-63
2022/11/11 01:49:19;;;;;;;21.38;9.98;;;11.80;99.90;;;;;;4924623;29;20136;-63
2022/11/11 01:52:20;;;;;;;20.35;10.38;;;11.80;99.90;;;;;;4923907;29;20048;-63
2022/11/11 01:54:57;;;;;;;17.20;9.30;;;11.90;99.90;;;;;;4912357;29;20064;-63
2022/11/11 01:57:31;;;;;;;19.25;10.73;;;11.80;99.90;;;;;;4924070;29;20048;-63
2022/11/11 02:00:10;;;;;;;16.77;9.40;;;11.80;99.90;;;;;;4924023;29;20040;-63
2022/11/11 02:02:44;;;;;;;20.20;10.30;;;11.90;99.90;;;;;;4924662;29;20135;-63
2022/11/11 02:08:00;;;;;;;19.05;9.90;;;11.90;99.90;;;;;;4907143;29;20583;-63
2022/11/11 02:10:29;;;;;;;20.30;9.95;;;11.80;99.90;;;;;;4923928;29;20036;-63
2022/11/11 02:15:39;;;;;;;19.70;11.18;;;11.80;99.90;;;;;;4924343;29;20393;-63
2022/11/11 02:18:06;;;;;;;20.83;9.88;;;11.90;99.90;;;;;;4906416;29;20052;-63
2022/11/11 02:20:37;;;;;;;22.25;9.70;;;12.00;99.90;;;;;;4924315;29;20047;-63
2022/11/11 02:23:14;;;;;;;19.73;10.30;;;11.90;99.90;;;;;;4923732;29;20056;-63
2022/11/11 02:25:45;;;;;;;18.00;9.98;;;11.80;99.90;;;;;;4923403;29;20044;-63
2022/11/11 02:28:12;;;;;;;17.75;9.63;;;11.90;99.90;;;;;;4907416;29;20048;-62
2022/11/11 02:30:38;;;;;;;19.67;9.57;;;11.90;99.90;;;;;;4922946;29;20474;-64
2022/11/11 02:33:05;;;;;;;19.85;10.25;;;11.80;99.90;;;;;;4924144;29;20107;-63
2022/11/11 02:35:37;;;;;;;16.98;10.23;;;11.80;99.90;;;;;;4922974;29;20047;-63
2022/11/11 02:38:07;;;;;;;18.08;9.88;;;11.90;99.90;;;;;;4923621;29;20134;-63
2022/11/11 02:41:55;;;;;;;19.95;10.60;;;11.80;99.90;;;;;;4923319;29;20060;-62
2022/11/11 02:43:27;;;;;;;20.98;10.60;;;11.80;99.90;;;;;;4922227;29;20059;-63
2022/11/11 02:45:53;;;;;;;21.38;10.88;;;11.90;99.90;;;;;;4924235;29;20095;-62
2022/11/11 02:48:19;;;;;;;18.00;10.20;;;11.70;99.90;;;;;;4922748;29;20076;-63
2022/11/11 02:50:44;;;;;;;23.48;10.80;;;11.90;99.90;;;;;;4923617;29;20441;-63
2022/11/11 02:53:10;;;;;;;19.20;9.90;;;11.90;99.90;;;;;;4923304;29;20047;-63
2022/11/11 02:55:36;;;;;;;17.40;10.40;;;11.90;99.90;;;;;;4922874;29;20136;-62
2022/11/11 02:58:01;;;;;;;18.50;11.50;;;11.90;99.90;;;;;;4923415;29;20067;-63
2022/11/11 03:00:27;;;;;;;20.30;11.95;;;11.80;99.90;;;;;;4922418;29;20147;-63
2022/11/11 03:02:53;;;;;;;22.65;11.48;;;11.90;99.90;;;;;;4906803;29;20048;-62
2022/11/11 03:05:18;;;;;;;20.48;11.88;;;11.60;99.90;;;;;;4905668;29;20052;-63
2022/11/11 03:07:44;;;;;;;21.63;12.40;;;11.70;99.90;;;;;;4923490;29;20083;-59
2022/11/11 03:10:10;;;;;;;23.05;13.07;;;11.60;99.90;;;;;;4905831;29;20051;-63
2022/11/11 03:12:36;;;;;;;26.05;13.82;;;11.70;99.90;;;;;;4922615;29;20088;-63
2022/11/11 03:15:02;;;;;;;20.55;13.25;;;11.70;99.90;;;;;;4923439;29;20044;-63
2022/11/11 03:17:40;;;;;;;19.02;13.07;;;11.70;99.90;;;;;;4922115;29;20044;-63
2022/11/11 03:23:12;;;;;;;27.73;15.55;;;11.50;99.90;;;;;;4922146;29;20051;-63
2022/11/11 03:25:47;;;;;;;22.65;15.63;;;11.50;99.90;;;;;;4922131;29;20048;-63
2022/11/11 03:28:18;;;;;;;26.98;15.15;;;11.50;99.90;;;;;;4923364;29;20040;-63
2022/11/11 03:30:45;;;;;;;26.05;15.02;;;11.50;99.90;;;;;;4922247;29;20108;-62
2022/11/11 03:33:12;;;;;;;25.85;16.10;;;11.50;99.90;;;;;;4923305;29;20056;-63
2022/11/11 03:35:38;;;;;;;26.83;16.58;;;11.50;99.90;;;;;;4921576;29;20048;-64
2022/11/11 03:38:15;;;;;;;24.95;16.30;;;11.40;99.90;;;;;;4922662;29;20056;-62
2022/11/11 03:40:45;;;;;;;27.83;15.95;;;11.50;99.90;;;;;;4922770;29;20059;-62
2022/11/11 03:43:17;;;;;;;26.75;16.52;;;11.50;99.90;;;;;;4904551;29;20055;-62
2022/11/11 03:45:44;;;;;;;25.35;17.02;;;11.40;99.90;;;;;;4923068;29;20413;-62
2022/11/11 03:48:10;;;;;;;26.83;15.98;;;11.40;99.90;;;;;;4904847;29;20084;-62
2022/11/11 03:50:36;;;;;;;26.15;17.23;;;11.40;99.90;;;;;;4910748;29;20831;-63
2022/11/11 03:53:02;;;;;;;24.55;16.60;;;11.50;99.90;;;;;;4919478;29;20059;-62
2022/11/11 03:55:28;;;;;;;24.77;16.70;;;11.50;99.90;;;;;;4886123;29;20051;-63
2022/11/11 03:57:54;;;;;;;25.95;17.48;;;11.30;99.90;;;;;;4910687;29;20048;-63
2022/11/11 04:00:22;;;;;;;25.02;17.67;;;11.30;99.90;;;;;;4921609;29;20040;-63
2022/11/11 04:11:08;;;;;;;27.52;18.60;;;11.30;99.90;;;;;;4922029;29;20526;-63
2022/11/11 04:16:19;;;;;;;31.40;18.23;;;11.40;99.90;;;;;;4922810;29;20100;-62
2022/11/11 04:21:44;;;;;;;25.73;18.35;;;11.40;99.90;;;;;;4921430;29;20071;-63
2022/11/11 04:27:04;;;;;;;30.50;17.73;;;11.40;99.90;;;;;;4902741;29;20055;-61
2022/11/11 04:29:30;;;;;;;27.38;18.70;;;11.30;99.90;;;;;;4902764;29;20513;-63
2022/11/11 04:32:42;;;;;;;27.35;18.48;;;11.40;99.90;;;;;;4903155;29;20067;-62
2022/11/11 04:34:57;;;;;;;33.40;19.98;;;11.40;99.90;;;;;;4896836;29;20060;-62
2022/11/11 04:37:25;;;;;;;34.70;20.98;;;11.20;99.90;;;;;;4907204;29;20092;-62
2022/11/11 04:42:36;;;;;;;29.08;19.10;;;11.40;99.90;;;;;;4906207;29;20129;-62
2022/11/11 04:47:56;;;;;;;31.23;20.42;;;11.20;99.90;;;;;;4905728;29;20052;-64
2022/11/11 04:50:23;;;;;;;31.80;20.20;;;11.40;99.90;;;;;;4907353;29;20048;-64
2022/11/11 04:52:49;;;;;;;33.53;21.65;;;11.20;99.90;;;;;;4906166;29;20048;-64
2022/11/11 04:57:59;;;;;;;29.70;20.30;;;11.30;99.90;;;;;;4916614;29;20084;-63
2022/11/11 05:00:25;;;;;;;31.15;20.85;;;11.30;99.90;;;;;;4924738;29;20483;-64
2022/11/11 05:11:08;;;;;;;32.58;21.48;;;11.10;99.90;;;;;;4925185;29;20089;-63
2022/11/11 05:22:10;;;;;;;32.30;21.63;;;11.10;99.90;;;;;;4924078;29;20671;-63
2022/11/11 05:27:20;;;;;;;37.25;23.60;;;11.10;99.90;;;;;;4924342;29;20080;-63
2022/11/11 05:29:47;;;;;;;34.22;22.92;;;11.10;99.90;;;;;;4924426;29;20406;-63
2022/11/11 05:32:18;;;;;;;33.83;21.85;;;11.10;99.90;;;;;;4924397;29;20543;-63
2022/11/11 05:34:44;;;;;;;29.55;20.52;;;10.90;99.90;;;;;;4907142;29;20532;-64
2022/11/11 05:37:10;;;;;;;35.00;21.85;;;11.00;99.90;;;;;;4925377;29;20051;-64
2022/11/11 05:39:36;;;;;;;33.45;22.65;;;10.80;99.90;;;;;;4923794;29;20147;-63
2022/11/11 05:42:02;;;;;;;34.00;20.88;;;10.80;99.90;;;;;;4924357;29;20059;-64
2022/11/11 05:44:27;;;;;;;31.67;21.90;;;10.90;99.90;;;;;;4924560;29;20044;-63
2022/11/11 05:46:53;;;;;;;30.13;21.77;;;10.70;99.90;;;;;;4924070;29;20107;-63
2022/11/11 05:49:18;;;;;;;32.03;22.40;;;10.70;99.90;;;;;;4924752;29;20493;-64
2022/11/11 05:51:45;;;;;;;36.33;22.75;;;10.80;99.90;;;;;;4923756;29;20044;-64
2022/11/11 05:54:12;;;;;;;36.38;23.63;;;10.80;99.90;;;;;;4925199;29;20127;-63
2022/11/11 05:56:38;;;;;;;33.70;20.95;;;10.90;99.90;;;;;;4906710;29;20115;-63
2022/11/11 05:59:04;;;;;;;31.05;20.95;;;10.90;99.90;;;;;;4924667;29;20049;-64
2022/11/11 06:01:30;;;;;;;34.25;22.30;;;10.70;99.90;;;;;;4923638;29;20048;-63
2022/11/11 06:03:55;;;;;;;35.67;21.73;;;10.80;99.90;;;;;;4902811;29;20056;-64
2022/11/11 06:06:21;;;;;;;36.00;22.67;;;10.70;99.90;;;;;;4920646;29;20171;-63
2022/11/11 06:08:47;;;;;;;38.58;23.65;;;10.60;99.90;;;;;;4919533;29;20048;-64
2022/11/11 06:11:12;;;;;;;33.28;21.92;;;10.60;99.90;;;;;;4920471;29;20037;-64
2022/11/11 06:13:38;;;;;;;33.20;21.73;;;10.50;99.90;;;;;;4919352;29;20048;-64
2022/11/11 06:16:04;;;;;;;35.50;22.13;;;10.70;99.90;;;;;;4920191;29;20096;-63
2022/11/11 06:18:30;;;;;;;35.85;22.52;;;10.70;99.90;;;;;;4919562;29;20040;-61
2022/11/11 06:20:57;;;;;;;36.22;20.98;;;10.80;99.90;;;;;;4902845;29;20056;-62
2022/11/11 06:23:23;;;;;;;36.53;22.33;;;10.60;99.90;;;;;;4919918;29;20417;-62
2022/11/11 06:28:35;;;;;;;35.28;22.15;;;10.60;99.90;;;;;;4920839;29;20140;-62
2022/11/11 06:31:00;;;;;;;37.78;22.02;;;10.70;99.90;;;;;;4919101;29;20048;-62
2022/11/11 06:33:26;;;;;;;31.15;21.50;;;10.90;99.90;;;;;;4918522;29;20080;-62
2022/11/11 06:35:52;;;;;;;35.25;21.38;;;11.00;99.90;;;;;;4901266;29;20047;-62
2022/11/11 06:38:18;;;;;;;38.03;22.77;;;10.90;99.90;;;;;;4917710;29;20099;-61
2022/11/11 06:40:44;;;;;;;36.65;22.08;;;11.00;99.90;;;;;;4919565;29;20088;-63
2022/11/11 06:43:10;;;;;;;34.10;20.15;;;11.00;99.90;;;;;;4918820;29;20056;-62
2022/11/11 06:45:36;;;;;;;34.00;20.48;;;11.00;99.90;;;;;;4920000;29;20048;-63
2022/11/11 06:48:02;;;;;;;30.13;20.75;;;11.30;99.90;;;;;;4901707;29;20110;-63
2022/11/11 06:50:28;;;;;;;33.20;21.33;;;11.00;99.90;;;;;;4919255;29;20059;-62
2022/11/11 06:52:55;;;;;;;32.83;22.70;;;11.30;99.90;;;;;;4903602;29;20041;-62
2022/11/11 06:55:21;;;;;;;34.35;22.52;;;11.20;99.90;;;;;;4922275;29;20087;-63
2022/11/11 06:57:46;;;;;;;36.97;23.83;;;11.20;99.90;;;;;;4914579;29;20055;-63
2022/11/11 07:00:13;;;;;;;31.48;20.30;;;11.10;99.90;;;;;;4886663;29;20386;-64
2022/11/11 07:02:39;;;;;;;37.30;21.92;;;11.20;99.90;;;;;;4903419;29;20033;-64
2022/11/11 07:05:05;;;;;;;38.88;22.02;;;11.10;99.90;;;;;;4885854;29;20131;-61
2022/11/11 07:07:30;;;;;;;37.47;22.67;;;11.10;99.90;;;;;;4887196;29;20059;-62
2022/11/11 07:09:56;;;;;;;36.30;22.55;;;11.30;99.90;;;;;;4886212;29;20060;-62
2022/11/11 07:12:22;;;;;;;33.90;22.60;;;11.20;99.90;;;;;;4902864;29;20193;-62
2022/11/11 07:14:48;;;;;;;36.13;22.38;;;11.30;99.90;;;;;;4903968;29;20045;-63
2022/11/11 07:17:14;;;;;;;34.78;22.27;;;11.30;99.90;;;;;;4902796;29;20056;-63
2022/11/11 07:19:39;;;;;;;37.20;22.77;;;11.20;99.90;;;;;;4904456;29;20052;-63
2022/11/11 07:22:05;;;;;;;38.13;23.13;;;11.10;99.90;;;;;;4902569;29;20194;-62
2022/11/11 07:24:31;;;;;;;37.78;21.95;;;11.10;99.90;;;;;;4904414;29;20056;-59
2022/11/11 07:26:58;;;;;;;39.83;22.73;;;11.10;99.90;;;;;;4903238;29;20059;-62
2022/11/11 07:29:24;;;;;;;34.08;21.52;;;11.10;99.90;;;;;;4886870;29;20313;-63
2022/11/11 07:31:50;;;;;;;35.65;23.45;;;11.30;99.90;;;;;;4903532;29;20059;-63
2022/11/11 07:34:15;;;;;;;35.03;21.55;;;11.30;99.90;;;;;;4886162;29;20051;-63
2022/11/11 07:36:41;;;;;;;36.85;22.05;;;11.20;99.90;;;;;;4903978;29;20518;-62
2022/11/11 07:39:07;;;;;;;35.95;22.42;;;11.30;99.90;;;;;;4902372;29;20056;-62
2022/11/11 07:41:32;;;;;;;38.00;23.08;;;11.20;99.90;;;;;;4903877;29;20429;-62
2022/11/11 07:43:58;;;;;;;37.20;23.27;;;11.30;99.90;;;;;;4886036;29;20100;-61
2022/11/11 07:46:24;;;;;;;39.35;22.55;;;11.20;99.90;;;;;;4899423;29;20044;-62
2022/11/11 07:48:53;;;;;;;38.03;24.45;;;11.20;99.90;;;;;;4916832;29;20422;-62
2022/11/11 07:51:19;;;;;;;38.83;24.05;;;11.10;99.90;;;;;;4917711;29;20044;-62
2022/11/11 07:53:44;;;;;;;39.47;22.63;;;11.20;99.90;;;;;;4885549;29;20048;-63
2022/11/11 07:56:10;;;;;;;36.65;23.30;;;11.30;99.90;;;;;;4916477;29;20055;-62
2022/11/11 07:58:35;;;;;;;40.42;23.00;;;11.20;99.90;;;;;;4916116;29;20103;-63
2022/11/11 08:01:01;;;;;;;40.35;21.77;;;11.30;99.90;;;;;;4916982;29;20048;-62
2022/11/11 08:03:27;;;;;;;36.35;22.35;;;11.20;99.90;;;;;;4918693;29;20366;-63
2022/11/11 08:05:54;;;;;;;35.70;22.60;;;11.20;99.90;;;;;;4901117;29;20055;-62
2022/11/11 08:08:23;;;;;;;35.97;21.05;;;11.40;99.90;;;;;;4916414;29;20055;-62
2022/11/11 08:10:52;;;;;;;36.67;22.42;;;11.40;99.90;;;;;;4908053;29;20068;-62
2022/11/11 08:16:05;;;;;;;34.20;22.15;;;11.40;99.90;;;;;;4920957;29;20575;-63
2022/11/11 08:18:31;;;;;;;37.35;23.08;;;11.30;99.90;;;;;;4904383;29;20384;-62
2022/11/11 08:20:57;;;;;;;35.17;22.77;;;11.20;99.90;;;;;;4904433;29;20083;-62
2022/11/11 08:23:31;;;;;;;35.40;22.45;;;11.30;99.90;;;;;;4921737;29;20119;-62
2022/11/11 08:26:01;;;;;;;41.67;23.73;;;11.10;99.90;;;;;;4903729;29;20052;-62
2022/11/11 08:28:28;;;;;;;35.60;21.83;;;11.30;99.90;;;;;;4922832;29;20036;-63
2022/11/11 08:30:54;;;;;;;37.83;22.58;;;11.20;99.90;;;;;;4921267;29;20052;-62
2022/11/11 08:33:20;;;;;;;37.00;22.58;;;11.20;99.90;;;;;;4921508;29;20059;-62
2022/11/11 08:35:46;;;;;;;34.33;22.67;;;11.10;99.90;;;;;;4921362;29;20039;-63
2022/11/11 08:38:12;;;;;;;37.28;22.90;;;11.30;99.90;;;;;;4904796;29;20083;-63
2022/11/11 08:40:38;;;;;;;35.50;22.40;;;11.30;99.90;;;;;;4922058;29;20065;-63
2022/11/11 08:43:04;;;;;;;34.20;22.23;;;11.20;99.90;;;;;;4904716;29;20079;-63
2022/11/11 08:45:30;;;;;;;38.65;23.63;;;11.20;99.90;;;;;;4921459;29;20104;-63
2022/11/11 08:47:55;;;;;;;36.22;22.17;;;11.20;99.90;;;;;;4920717;29;20051;-63
2022/11/11 08:50:21;;;;;;;34.20;22.90;;;11.20;99.90;;;;;;4905152;29;20497;-63
2022/11/11 08:52:48;;;;;;;41.65;23.05;;;11.30;99.90;;;;;;4904286;29;20084;-63
2022/11/11 08:55:14;;;;;;;33.08;22.58;;;11.30;99.90;;;;;;4921041;29;20084;-64
2022/11/11 08:57:39;;;;;;;36.47;22.90;;;11.40;99.90;;;;;;4895904;29;20052;-63
2022/11/11 09:00:06;;;;;;;35.45;22.35;;;11.30;99.90;;;;;;4901073;29;20104;-64
2022/11/11 09:02:32;;;;;;;35.20;22.95;;;11.40;99.90;;;;;;4902301;29;20093;-64
2022/11/11 09:04:57;;;;;;;41.17;23.95;;;11.30;99.90;;;;;;4901910;29;20076;-64
2022/11/11 09:07:23;;;;;;;39.63;23.42;;;11.20;99.90;;;;;;4903213;29;20060;-63
2022/11/11 09:09:49;;;;;;;34.35;23.55;;;11.20;99.90;;;;;;4900634;29;20135;-63
2022/11/11 09:12:15;;;;;;;37.40;23.40;;;11.20;99.90;;;;;;4894566;29;20040;-64
2022/11/11 09:14:40;;;;;;;34.88;22.98;;;11.40;99.90;;;;;;4920475;29;20385;-64
2022/11/11 09:17:06;;;;;;;34.25;22.42;;;11.30;99.90;;;;;;4920070;29;20040;-64
2022/11/11 09:19:32;;;;;;;35.80;23.20;;;11.30;99.90;;;;;;4921445;29;20075;-64
2022/11/11 09:21:57;;;;;;;35.80;23.45;;;11.20;99.90;;;;;;4919038;29;20059;-64
2022/11/11 09:24:23;;;;;;;40.22;23.70;;;11.20;99.90;;;;;;4921098;29;20051;-63
2022/11/11 09:26:50;;;;;;;37.75;23.10;;;11.30;99.90;;;;;;4919604;29;20063;-62
2022/11/11 09:29:17;;;;;;;38.20;22.95;;;11.30;99.90;;;;;;4920626;29;20044;-63
2022/11/11 09:31:43;;;;;;;35.00;22.50;;;11.20;99.90;;;;;;4888223;29;20080;-63
2022/11/11 09:34:09;;;;;;;38.90;23.58;;;11.30;99.90;;;;;;4919913;29;20111;-63
2022/11/11 09:36:34;;;;;;;32.10;22.25;;;11.20;99.90;;;;;;4920639;29;20055;-63
2022/11/11 09:39:00;;;;;;;35.45;20.85;;;11.10;99.90;;;;;;4902916;29;20056;-64
2022/11/11 09:41:55;;;;;;;37.47;22.90;;;11.00;99.90;;;;;;4919860;29;20091;-64
2022/11/11 09:44:48;;;;;;;31.48;22.05;;;11.10;99.90;;;;;;4920236;29;20102;-63
2022/11/11 09:47:26;;;;;;;35.42;22.35;;;11.10;99.90;;;;;;4920041;29;20052;-63
2022/11/11 09:49:55;;;;;;;36.55;21.63;;;11.10;99.90;;;;;;4907680;29;20044;-63
2022/11/11 09:52:26;;;;;;;40.00;23.85;;;11.10;99.90;;;;;;4923473;29;20059;-63
2022/11/11 09:54:58;;;;;;;37.42;22.70;;;11.20;99.90;;;;;;4924387;29;20043;-63
2022/11/11 09:57:27;;;;;;;;;;;11.20;99.90;;;;;;4907631;29;20048;-63
2022/11/11 09:59:55;;;;;;;37.92;21.95;;;11.20;99.90;;;;;;4923728;29;20264;-63
2022/11/11 10:02:46;;;;;;;37.08;22.90;;;11.20;99.90;;;;;;4924979;29;20071;-63
2022/11/11 10:05:16;;;;;;;35.88;22.92;;;11.20;99.90;;;;;;4923264;29;20519;-63
2022/11/11 10:08:00;;;;;;;39.08;22.98;;;11.00;99.90;;;;;;4891661;29;20055;-63
2022/11/11 10:10:37;;;;;;;42.40;22.90;;;11.00;99.90;;;;;;4923976;29;20044;-62
2022/11/11 10:13:29;;;;;;;32.88;22.35;;;11.00;99.90;;;;;;4923319;29;20048;-63
2022/11/11 10:16:12;;;;;;;35.30;21.65;;;11.00;99.90;;;;;;4924674;29;20075;-62
2022/11/11 10:19:08;;;;;;;39.80;21.27;;;11.20;99.90;;;;;;4907082;29;20447;-62
2022/11/11 10:21:41;;;;;;;39.38;22.35;;;11.20;99.90;;;;;;4905854;29;20402;-63
2022/11/11 10:24:14;;;;;;;41.42;22.05;;;11.10;99.90;;;;;;4924068;29;20055;-63
2022/11/11 10:26:43;;;;;;;34.17;21.90;;;11.20;99.90;;;;;;4921892;29;20044;-62
2022/11/11 10:29:20;;;;;;;32.63;19.00;;;11.10;99.90;;;;;;4924088;29;20519;-62
2022/11/11 10:32:07;;;;;;;32.15;18.80;;;11.10;99.90;;;;;;4923844;29;20059;-62
2022/11/11 10:34:33;;;;;;;34.78;18.33;;;11.20;99.90;;;;;;4922133;29;20523;-63
2022/11/11 10:37:00;;;;;;;31.10;17.95;;;11.10;99.90;;;;;;4924256;29;20044;-63
2022/11/11 10:39:32;;;;;;;32.42;16.40;;;11.30;99.90;;;;;;4905665;29;20127;-62
2022/11/11 10:41:58;;;;;;;28.98;19.38;;;11.30;99.90;;;;;;4923366;29;20052;-63
2022/11/11 10:44:35;;;;;;;32.38;20.20;;;11.20;99.90;;;;;;4923335;29;20051;-62
2022/11/11 10:47:11;;;;;;;33.67;20.00;;;11.20;99.90;;;;;;4922978;29;20121;-63
2022/11/11 10:50:21;;;;;;;30.67;20.25;;;11.30;99.90;;;;;;4923969;29;20067;-63
2022/11/11 10:52:53;;;;;;;33.75;20.55;;;11.30;99.90;;;;;;4902656;29;20066;-63
2022/11/11 10:55:24;;;;;;;31.70;19.92;;;11.20;99.90;;;;;;4922935;29;20048;-63
2022/11/11 10:57:53;;;;;;;35.00;19.42;;;11.30;99.90;;;;;;4887246;29;20064;-63
2022/11/11 11:00:19;;;;;;;31.40;19.52;;;11.40;99.90;;;;;;4903162;29;20052;-63
2022/11/11 11:02:55;;;;;;;30.08;19.85;;;11.30;99.90;;;;;;4904784;29;20041;-64
2022/11/11 11:05:32;;;;;;;30.15;19.67;;;11.50;99.90;;;;;;4903643;29;20075;-62
2022/11/11 11:08:09;;;;;;;30.92;20.20;;;11.50;99.90;;;;;;4904270;29;20146;-63
2022/11/11 11:10:44;;;;;;;30.90;19.38;;;11.40;99.90;;;;;;4904307;29;20552;-63
2022/11/11 11:13:19;;;;;;;29.58;19.17;;;11.50;99.90;;;;;;4903184;29;20048;-63
2022/11/11 11:15:55;;;;;;;29.08;18.95;;;11.50;99.90;;;;;;4904409;29;20501;-62
2022/11/11 11:18:20;;;;;;;30.77;20.27;;;11.40;99.90;;;;;;4903326;29;20043;-63
2022/11/11 11:20:58;;;;;;;28.27;19.45;;;11.50;99.90;;;;;;4903370;29;20092;-64
2022/11/11 11:23:44;;;;;;;28.88;18.33;;;11.50;99.90;;;;;;4904164;29;20060;-63
2022/11/11 11:26:12;;;;;;;28.95;18.90;;;11.40;99.90;;;;;;4912749;29;20072;-65
2022/11/11 11:28:58;;;;;;;30.30;18.25;;;11.50;99.90;;;;;;4918195;29;20246;-65
2022/11/11 11:31:41;;;;;;;29.60;18.33;;;11.40;99.90;;;;;;4911778;29;20075;-63
2022/11/11 11:34:07;;;;;;;29.52;18.05;;;11.40;99.90;;;;;;4912535;29;20052;-64
2022/11/11 11:36:33;;;;;;;30.00;19.67;;;11.50;99.90;;;;;;4915010;29;20104;-62
2022/11/11 11:38:59;;;;;;;28.63;18.15;;;11.40;99.90;;;;;;4903599;29;20092;-62
2022/11/11 11:41:42;;;;;;;27.92;17.30;;;11.40;99.90;;;;;;4920203;29;20086;-62
2022/11/11 11:44:25;;;;;;;27.35;17.55;;;11.40;99.90;;;;;;4916504;29;20123;-62
2022/11/11 11:47:05;;;;;;;29.10;18.77;;;11.50;99.90;;;;;;4913401;29;20521;-62
2022/11/11 11:50:08;;;;;;;31.63;19.13;;;11.40;99.90;;;;;;4912864;29;20064;-63
2022/11/11 11:53:05;;;;;;;26.15;17.05;;;11.60;99.90;;;;;;4912133;29;20058;-62
2022/11/11 11:55:36;;;;;;;27.20;17.02;;;11.40;99.90;;;;;;4911617;29;20139;-63
2022/11/11 11:58:20;;;;;;;27.23;17.85;;;11.50;99.90;;;;;;4894986;29;20051;-62
2022/11/11 12:01:00;;;;;;;27.55;16.48;;;11.50;99.90;;;;;;4912547;29;20086;-62
2022/11/11 12:03:58;;;;;;;26.70;17.15;;;11.40;99.90;;;;;;4894852;29;20040;-61
2022/11/11 12:06:54;;;;;;;24.98;16.70;;;11.60;99.90;;;;;;4913697;29;20044;-63
2022/11/11 12:09:28;;;;;;;24.35;17.23;;;11.40;99.90;;;;;;4910356;29;20048;-62
2022/11/11 12:12:11;;;;;;;25.25;15.27;;;11.50;99.90;;;;;;4886510;29;20048;-62
2022/11/11 12:15:14;;;;;;;22.92;15.57;;;11.50;99.90;;;;;;4903170;29;20057;-62
2022/11/11 12:17:47;;;;;;;;;;;11.40;99.90;;;;;;4902981;29;20053;-63
2022/11/11 12:20:12;;;;;;;;;;;11.40;99.90;;;;;;4903178;29;19923;-62
2022/11/11 12:22:56;;;;;;;29.38;16.73;;;11.40;99.90;;;;;;4901524;29;19935;-62
2022/11/11 12:25:49;;;;;;;28.85;17.35;;;11.40;99.90;;;;;;4902919;29;20064;-62
2022/11/11 12:28:30;;;;;;;24.70;15.85;;;11.40;99.90;;;;;;4903929;29;20482;-62
2022/11/11 12:31:13;;;;;;;28.13;16.80;;;11.40;99.90;;;;;;4902709;29;20501;-63
2022/11/11 12:33:45;;;;;;;26.20;16.50;;;11.40;99.90;;;;;;4903268;29;20036;-62
2022/11/11 12:36:20;;;;;;;23.40;16.40;;;11.50;99.90;;;;;;4886646;29;20076;-63
2022/11/11 12:39:00;;;;;;;30.23;16.92;;;11.40;99.90;;;;;;4902457;29;20382;-62
2022/11/11 12:41:28;;;;;;;29.35;16.58;;;11.30;99.90;;;;;;4903341;29;20085;-62
2022/11/11 12:44:00;;;;;;;27.38;17.40;;;11.40;99.90;;;;;;4902754;29;20041;-58
2022/11/11 12:46:40;;;;;;;28.38;16.48;;;11.40;99.90;;;;;;4903520;29;20055;-62
2022/11/11 12:49:38;;;;;;;26.17;17.05;;;11.40;99.90;;;;;;4903444;29;20048;-63
2022/11/11 12:52:18;;;;;;;30.58;17.70;;;11.30;99.90;;;;;;4887790;29;20045;-62
2022/11/11 12:54:53;;;;;;;28.52;17.48;;;11.40;99.90;;;;;;4886311;29;20087;-62
2022/11/11 12:57:37;;;;;;;28.33;18.13;;;11.40;99.90;;;;;;4909361;29;20048;-62
2022/11/11 13:00:03;;;;;;;27.60;17.50;;;11.30;99.90;;;;;;4924936;29;20082;-62
2022/11/11 13:03:06;;;;;;;29.67;18.23;;;11.30;99.90;;;;;;4926003;29;20080;-63
2022/11/11 13:05:40;;;;;;;27.20;17.50;;;11.20;99.90;;;;;;4892242;29;20128;-63
2022/11/11 13:08:14;;;;;;;27.10;16.67;;;11.20;99.90;;;;;;4925205;29;20075;-63
2022/11/11 13:11:02;;;;;;;29.52;17.63;;;11.40;99.90;;;;;;4925431;29;20055;-63
2022/11/11 13:13:34;;;;;;;27.83;18.08;;;11.20;99.90;;;;;;4907142;29;20060;-63
2022/11/11 13:16:00;;;;;;;28.80;17.80;;;11.20;99.90;;;;;;4925700;29;20052;-63
2022/11/11 13:18:49;;;;;;;29.10;18.73;;;11.20;99.90;;;;;;4907419;29;20075;-63
2022/11/11 13:21:20;;;;;;;29.75;18.02;;;11.30;99.90;;;;;;4924611;29;20605;-62
2022/11/11 13:23:46;;;;;;;28.58;17.85;;;11.30;99.90;;;;;;4925436;29;20075;-63
2022/11/11 13:26:31;;;;;;;32.03;19.77;;;11.30;99.90;;;;;;4924200;29;20056;-62
2022/11/11 13:29:46;;;;;;;30.30;19.88;;;11.30;99.90;;;;;;4925122;29;20052;-63
2022/11/11 13:32:15;;;;;;;32.40;20.77;;;11.20;99.90;;;;;;4925376;29;20119;-63
2022/11/11 13:34:41;;;;;;;32.17;19.52;;;11.10;99.90;;;;;;4923750;29;20059;-63
2022/11/11 13:37:18;;;;;;;34.42;19.77;;;11.10;99.90;;;;;;4925462;29;20059;-63
2022/11/11 13:39:46;;;;;;;30.75;18.20;;;11.20;99.90;;;;;;4906577;29;20056;-63
2022/11/11 13:42:20;;;;;;;31.05;19.65;;;11.30;99.90;;;;;;4924514;29;20141;-63
2022/11/11 13:44:52;;;;;;;32.63;20.40;;;11.10;99.90;;;;;;4924853;29;20055;-63
2022/11/11 13:47:19;;;;;;;;;;;11.10;99.90;;;;;;4924533;29;20056;-60
2022/11/11 13:50:13;;;;;;;33.55;19.25;;;11.10;99.90;;;;;;4925119;29;19923;-63
2022/11/11 13:52:54;;;;;;;31.30;19.02;;;11.00;99.90;;;;;;4924109;29;20079;-63
2022/11/11 13:55:30;;;;;;;31.58;19.67;;;11.10;99.90;;;;;;4923735;29;20039;-63
2022/11/11 13:57:56;;;;;;;32.58;19.70;;;11.20;99.90;;;;;;4898330;29;20049;-63
2022/11/11 14:00:21;;;;;;;30.88;21.05;;;11.20;99.90;;;;;;4904198;29;20052;-64
2022/11/11 14:03:07;;;;;;;34.05;21.13;;;11.20;99.90;;;;;;4906019;29;20634;-63
2022/11/11 14:05:33;;;;;;;31.02;20.48;;;11.30;99.90;;;;;;4904681;29;20063;-62